Mentor, Kentucky
Current Conditions -  °F | °C
As of 6:53 AM on Monday 26 Jan 2015 (Local Time) from KLUK Reporting Station
Overcast Overcast  
Wind Chill:   Ceiling: 1600
Heat Index: 21°   Visibility: 10mi
Dew Point: 16°   Wind: 12mph
Humidity: 81%   Direction: 340°NNW
Pressure: 29.87"   Gusts: NA
Location:  38.8948°N, 84.2968°W
Report Text: KLUK 261153Z 34010KT 10SM OVC016 M06/M09 A2987 RMK AO2 SLP119 60001 70045 T10611089 11011 21061 51023
Loading
Personal Weather Stations






























Interactive Weather Map New forecast layout! Learn more

10-Day Weather Forecast

Advertisements
Track Severe Weather on mobile